sensor_id;sensor_type;location;lat;lon;timestamp;temperature;humidity
19538;DHT22;9914;51.008;4.300;2022-12-18T00:02:15;-3.00;99.90
19538;DHT22;9914;51.008;4.300;2022-12-18T00:04:41;-3.00;99.90
19538;DHT22;9914;51.008;4.300;2022-12-18T00:07:06;-3.00;99.90
19538;DHT22;9914;51.008;4.300;2022-12-18T00:09:32;-3.10;99.90
19538;DHT22;9914;51.008;4.300;2022-12-18T00:11:57;-3.00;99.90
19538;DHT22;9914;51.008;4.300;2022-12-18T00:14:23;-3.10;99.90
19538;DHT22;9914;51.008;4.300;2022-12-18T00:16:49;-3.10;99.90
19538;DHT22;9914;51.008;4.300;2022-12-18T00:19:14;-3.10;99.90
19538;DHT22;9914;51.008;4.300;2022-12-18T00:21:41;-2.90;99.90
19538;DHT22;9914;51.008;4.300;2022-12-18T00:24:07;-3.00;99.90
19538;DHT22;9914;51.008;4.300;2022-12-18T00:26:34;-3.10;99.90
19538;DHT22;9914;51.008;4.300;2022-12-18T00:29:06;-3.10;99.90
19538;DHT22;9914;51.008;4.300;2022-12-18T00:31:33;-2.90;99.90
19538;DHT22;9914;51.008;4.300;2022-12-18T00:33:59;-2.80;99.90
19538;DHT22;9914;51.008;4.300;2022-12-18T00:36:27;-2.80;99.90
19538;DHT22;9914;51.008;4.300;2022-12-18T00:38:54;-3.00;99.90
19538;DHT22;9914;51.008;4.300;2022-12-18T00:41:21;-3.10;99.90
19538;DHT22;9914;51.008;4.300;2022-12-18T00:44:07;-3.20;99.90
19538;DHT22;9914;51.008;4.300;2022-12-18T00:46:33;-3.40;99.90
19538;DHT22;9914;51.008;4.300;2022-12-18T00:48:59;-3.50;99.90
19538;DHT22;9914;51.008;4.300;2022-12-18T00:51:25;-3.60;99.90
19538;DHT22;9914;51.008;4.300;2022-12-18T00:53:51;-3.60;99.90
19538;DHT22;9914;51.008;4.300;2022-12-18T00:56:16;-3.40;99.90
19538;DHT22;9914;51.008;4.300;2022-12-18T00:58:42;-3.50;99.90
19538;DHT22;9914;51.008;4.300;2022-12-18T01:01:07;-3.70;99.90
19538;DHT22;9914;51.008;4.300;2022-12-18T01:03:34;-3.60;99.90
19538;DHT22;9914;51.008;4.300;2022-12-18T01:05:59;-3.40;99.90
19538;DHT22;9914;51.008;4.300;2022-12-18T01:08:25;-3.30;99.90
19538;DHT22;9914;51.008;4.300;2022-12-18T01:10:50;-3.30;99.90
19538;DHT22;9914;51.008;4.300;2022-12-18T01:13:16;-3.20;99.90
19538;DHT22;9914;51.008;4.300;2022-12-18T01:15:48;-3.20;99.90
19538;DHT22;9914;51.008;4.300;2022-12-18T01:18:14;-3.40;99.90
19538;DHT22;9914;51.008;4.300;2022-12-18T01:20:40;-3.50;99.90
19538;DHT22;9914;51.008;4.300;2022-12-18T01:23:06;-3.50;99.90
19538;DHT22;9914;51.008;4.300;2022-12-18T01:25:31;-3.60;99.90
19538;DHT22;9914;51.008;4.300;2022-12-18T01:27:57;-3.60;99.90
19538;DHT22;9914;51.008;4.300;2022-12-18T01:30:22;-3.50;99.90
19538;DHT22;9914;51.008;4.300;2022-12-18T01:32:48;-3.60;99.90
19538;DHT22;9914;51.008;4.300;2022-12-18T01:35:14;-3.60;99.90
19538;DHT22;9914;51.008;4.300;2022-12-18T01:37:39;-3.60;99.90
19538;DHT22;9914;51.008;4.300;2022-12-18T01:40:05;-3.80;99.90
19538;DHT22;9914;51.008;4.300;2022-12-18T01:42:31;-3.80;99.90
19538;DHT22;9914;51.008;4.300;2022-12-18T01:47:47;-3.70;99.90
19538;DHT22;9914;51.008;4.300;2022-12-18T01:50:25;-3.70;99.90
19538;DHT22;9914;51.008;4.300;2022-12-18T01:53:27;-3.60;99.90
19538;DHT22;9914;51.008;4.300;2022-12-18T01:55:50;-3.60;99.90
19538;DHT22;9914;51.008;4.300;2022-12-18T01:58:18;-3.80;99.90
19538;DHT22;9914;51.008;4.300;2022-12-18T02:00:44;-4.00;99.90
19538;DHT22;9914;51.008;4.300;2022-12-18T02:03:10;-4.10;99.90
19538;DHT22;9914;51.008;4.300;2022-12-18T02:06:09;-4.00;99.90
19538;DHT22;9914;51.008;4.300;2022-12-18T02:11:28;-3.60;99.90
19538;DHT22;9914;51.008;4.300;2022-12-18T02:27:22;-3.90;99.90
19538;DHT22;9914;51.008;4.300;2022-12-18T02:29:50;-3.80;99.90
19538;DHT22;9914;51.008;4.300;2022-12-18T02:32:26;-3.80;99.90
19538;DHT22;9914;51.008;4.300;2022-12-18T02:34:56;-3.80;99.90
19538;DHT22;9914;51.008;4.300;2022-12-18T02:37:23;-4.00;99.90
19538;DHT22;9914;51.008;4.300;2022-12-18T02:39:53;-4.10;99.90
19538;DHT22;9914;51.008;4.300;2022-12-18T02:42:20;-4.10;99.90
19538;DHT22;9914;51.008;4.300;2022-12-18T02:44:48;-4.00;99.90
19538;DHT22;9914;51.008;4.300;2022-12-18T02:47:18;-4.00;99.90
19538;DHT22;9914;51.008;4.300;2022-12-18T02:49:59;-3.90;99.90
19538;DHT22;9914;51.008;4.300;2022-12-18T02:58:29;-4.00;99.90
19538;DHT22;9914;51.008;4.300;2022-12-18T03:01:06;-3.90;99.90
19538;DHT22;9914;51.008;4.300;2022-12-18T03:03:42;-3.80;99.90
19538;DHT22;9914;51.008;4.300;2022-12-18T03:08:51;-3.80;99.90
19538;DHT22;9914;51.008;4.300;2022-12-18T03:11:19;-3.90;99.90
19538;DHT22;9914;51.008;4.300;2022-12-18T03:14:06;-4.00;99.90
19538;DHT22;9914;51.008;4.300;2022-12-18T03:16:34;-4.00;99.90
19538;DHT22;9914;51.008;4.300;2022-12-18T03:19:08;-4.10;99.90
19538;DHT22;9914;51.008;4.300;2022-12-18T03:21:42;-4.20;99.90
19538;DHT22;9914;51.008;4.300;2022-12-18T03:24:09;-4.10;99.90
19538;DHT22;9914;51.008;4.300;2022-12-18T03:26:40;-4.00;99.90
19538;DHT22;9914;51.008;4.300;2022-12-18T03:29:11;-4.20;99.90
19538;DHT22;9914;51.008;4.300;2022-12-18T03:31:40;-4.10;99.90
19538;DHT22;9914;51.008;4.300;2022-12-18T03:34:17;-4.10;99.90
19538;DHT22;9914;51.008;4.300;2022-12-18T03:36:45;-4.20;99.90
19538;DHT22;9914;51.008;4.300;2022-12-18T03:39:11;-4.20;99.90
19538;DHT22;9914;51.008;4.300;2022-12-18T03:44:13;-4.00;99.90
19538;DHT22;9914;51.008;4.300;2022-12-18T03:49:34;-3.90;99.90
19538;DHT22;9914;51.008;4.300;2022-12-18T03:52:11;-4.00;99.90
19538;DHT22;9914;51.008;4.300;2022-12-18T03:54:40;-4.10;99.90
19538;DHT22;9914;51.008;4.300;2022-12-18T03:57:11;-4.30;99.90
19538;DHT22;9914;51.008;4.300;2022-12-18T03:59:39;-4.30;99.90
19538;DHT22;9914;51.008;4.300;2022-12-18T04:02:06;-4.20;99.90
19538;DHT22;9914;51.008;4.300;2022-12-18T04:04:34;-4.30;99.90
19538;DHT22;9914;51.008;4.300;2022-12-18T04:07:01;-4.30;99.90
19538;DHT22;9914;51.008;4.300;2022-12-18T04:09:28;-4.20;99.90
19538;DHT22;9914;51.008;4.300;2022-12-18T04:11:55;-4.30;99.90
19538;DHT22;9914;51.008;4.300;2022-12-18T04:14:21;-4.30;99.90
19538;DHT22;9914;51.008;4.300;2022-12-18T04:16:46;-4.30;99.90
19538;DHT22;9914;51.008;4.300;2022-12-18T04:19:12;-4.40;99.90
19538;DHT22;9914;51.008;4.300;2022-12-18T04:21:37;-4.50;99.90
19538;DHT22;9914;51.008;4.300;2022-12-18T04:24:03;-4.50;99.90
19538;DHT22;9914;51.008;4.300;2022-12-18T04:26:29;-4.50;99.90
19538;DHT22;9914;51.008;4.300;2022-12-18T04:28:54;-4.60;99.90
19538;DHT22;9914;51.008;4.300;2022-12-18T04:31:20;-4.60;99.90
19538;DHT22;9914;51.008;4.300;2022-12-18T04:33:46;-4.60;99.90
19538;DHT22;9914;51.008;4.300;2022-12-18T04:36:11;-4.60;99.90
19538;DHT22;9914;51.008;4.300;2022-12-18T04:38:37;-4.60;99.90
19538;DHT22;9914;51.008;4.300;2022-12-18T04:41:03;-4.60;99.90
19538;DHT22;9914;51.008;4.300;2022-12-18T04:43:29;-4.60;99.90
19538;DHT22;9914;51.008;4.300;2022-12-18T04:46:02;-4.50;99.90
19538;DHT22;9914;51.008;4.300;2022-12-18T04:48:28;-4.30;99.90
19538;DHT22;9914;51.008;4.300;2022-12-18T04:50:53;-4.40;99.90
19538;DHT22;9914;51.008;4.300;2022-12-18T04:53:19;-4.40;99.90
19538;DHT22;9914;51.008;4.300;2022-12-18T04:55:44;-4.40;99.90
19538;DHT22;9914;51.008;4.300;2022-12-18T04:58:10;-4.50;99.90
19538;DHT22;9914;51.008;4.300;2022-12-18T05:00:35;-4.30;99.90
19538;DHT22;9914;51.008;4.300;2022-12-18T05:03:01;-4.50;99.90
19538;DHT22;9914;51.008;4.300;2022-12-18T05:05:27;-4.50;99.90
19538;DHT22;9914;51.008;4.300;2022-12-18T05:07:53;-4.50;99.90
19538;DHT22;9914;51.008;4.300;2022-12-18T05:10:18;-4.60;99.90
19538;DHT22;9914;51.008;4.300;2022-12-18T05:12:44;-4.60;99.90
19538;DHT22;9914;51.008;4.300;2022-12-18T05:15:29;-4.40;99.90
19538;DHT22;9914;51.008;4.300;2022-12-18T05:17:56;-4.50;99.90
19538;DHT22;9914;51.008;4.300;2022-12-18T05:20:22;-4.40;99.90
19538;DHT22;9914;51.008;4.300;2022-12-18T05:22:48;-4.40;99.90
19538;DHT22;9914;51.008;4.300;2022-12-18T05:25:13;-4.40;99.90
19538;DHT22;9914;51.008;4.300;2022-12-18T05:27:39;-4.30;99.90
19538;DHT22;9914;51.008;4.300;2022-12-18T05:30:05;-4.10;99.90
19538;DHT22;9914;51.008;4.300;2022-12-18T05:32:31;-4.10;99.90
19538;DHT22;9914;51.008;4.300;2022-12-18T05:34:56;-4.30;99.90
19538;DHT22;9914;51.008;4.300;2022-12-18T05:37:22;-4.20;99.90
19538;DHT22;9914;51.008;4.300;2022-12-18T05:39:48;-4.30;99.90
19538;DHT22;9914;51.008;4.300;2022-12-18T05:42:13;-4.30;99.90
19538;DHT22;9914;51.008;4.300;2022-12-18T05:44:39;-4.20;99.90
19538;DHT22;9914;51.008;4.300;2022-12-18T05:47:05;-4.40;99.90
19538;DHT22;9914;51.008;4.300;2022-12-18T05:49:31;-4.40;99.90
19538;DHT22;9914;51.008;4.300;2022-12-18T05:51:57;-4.50;99.90
19538;DHT22;9914;51.008;4.300;2022-12-18T05:54:22;-4.50;99.90
19538;DHT22;9914;51.008;4.300;2022-12-18T05:56:48;-4.40;99.90
19538;DHT22;9914;51.008;4.300;2022-12-18T05:59:13;-4.30;99.90
19538;DHT22;9914;51.008;4.300;2022-12-18T06:01:39;-4.20;99.90
19538;DHT22;9914;51.008;4.300;2022-12-18T06:04:05;-4.30;99.90
19538;DHT22;9914;51.008;4.300;2022-12-18T06:06:31;-4.40;99.90
19538;DHT22;9914;51.008;4.300;2022-12-18T06:08:57;-4.50;99.90
19538;DHT22;9914;51.008;4.300;2022-12-18T06:11:24;-4.40;99.90
19538;DHT22;9914;51.008;4.300;2022-12-18T06:13:54;-4.30;99.90
19538;DHT22;9914;51.008;4.300;2022-12-18T06:16:20;-4.30;99.90
19538;DHT22;9914;51.008;4.300;2022-12-18T06:18:46;-4.40;99.90
19538;DHT22;9914;51.008;4.300;2022-12-18T06:21:13;-4.30;99.90
19538;DHT22;9914;51.008;4.300;2022-12-18T06:23:38;-4.40;99.90
19538;DHT22;9914;51.008;4.300;2022-12-18T06:26:09;-4.30;99.90
19538;DHT22;9914;51.008;4.300;2022-12-18T06:28:35;-4.30;99.90
19538;DHT22;9914;51.008;4.300;2022-12-18T06:31:03;-4.30;99.90
19538;DHT22;9914;51.008;4.300;2022-12-18T06:33:29;-4.30;99.90
19538;DHT22;9914;51.008;4.300;2022-12-18T06:36:00;-4.30;99.90
19538;DHT22;9914;51.008;4.300;2022-12-18T06:38:26;-4.50;99.90
19538;DHT22;9914;51.008;4.300;2022-12-18T06:40:51;-4.40;99.90
19538;DHT22;9914;51.008;4.300;2022-12-18T06:43:17;-4.30;99.90
19538;DHT22;9914;51.008;4.300;2022-12-18T06:45:42;-4.30;99.90
19538;DHT22;9914;51.008;4.300;2022-12-18T06:48:08;-4.10;99.90
19538;DHT22;9914;51.008;4.300;2022-12-18T06:50:33;-4.10;99.90
19538;DHT22;9914;51.008;4.300;2022-12-18T06:52:59;-4.10;99.90
19538;DHT22;9914;51.008;4.300;2022-12-18T06:55:25;-4.10;99.90
19538;DHT22;9914;51.008;4.300;2022-12-18T06:57:50;-4.30;99.90
19538;DHT22;9914;51.008;4.300;2022-12-18T07:00:16;-4.20;99.90
19538;DHT22;9914;51.008;4.300;2022-12-18T07:02:42;-4.20;99.90
19538;DHT22;9914;51.008;4.300;2022-12-18T07:05:08;-4.20;99.90
19538;DHT22;9914;51.008;4.300;2022-12-18T07:07:34;-4.20;99.90
19538;DHT22;9914;51.008;4.300;2022-12-18T07:10:00;-4.30;99.90
19538;DHT22;9914;51.008;4.300;2022-12-18T07:12:29;-4.20;99.90
19538;DHT22;9914;51.008;4.300;2022-12-18T07:14:54;-4.30;99.90
19538;DHT22;9914;51.008;4.300;2022-12-18T07:17:20;-4.20;99.90
19538;DHT22;9914;51.008;4.300;2022-12-18T07:19:45;-4.20;99.90
19538;DHT22;9914;51.008;4.300;2022-12-18T07:22:11;-4.30;99.90
19538;DHT22;9914;51.008;4.300;2022-12-18T07:24:36;-4.30;99.90
19538;DHT22;9914;51.008;4.300;2022-12-18T07:27:02;-4.30;99.90
19538;DHT22;9914;51.008;4.300;2022-12-18T07:29:28;-4.30;99.90
19538;DHT22;9914;51.008;4.300;2022-12-18T07:31:53;-4.30;99.90
19538;DHT22;9914;51.008;4.300;2022-12-18T07:34:19;-4.30;99.90
19538;DHT22;9914;51.008;4.300;2022-12-18T07:36:45;-4.40;99.90
19538;DHT22;9914;51.008;4.300;2022-12-18T07:39:11;-4.40;99.90
19538;DHT22;9914;51.008;4.300;2022-12-18T07:41:37;-4.40;99.90
19538;DHT22;9914;51.008;4.300;2022-12-18T07:44:02;-4.20;99.90
19538;DHT22;9914;51.008;4.300;2022-12-18T07:46:28;-4.20;99.90
19538;DHT22;9914;51.008;4.300;2022-12-18T07:48:54;-4.20;99.90
19538;DHT22;9914;51.008;4.300;2022-12-18T07:51:19;-4.20;99.90
19538;DHT22;9914;51.008;4.300;2022-12-18T07:53:45;-4.20;99.90
19538;DHT22;9914;51.008;4.300;2022-12-18T07:56:12;-4.10;99.90
19538;DHT22;9914;51.008;4.300;2022-12-18T07:58:37;-4.20;99.90
19538;DHT22;9914;51.008;4.300;2022-12-18T08:01:12;-4.30;99.90
19538;DHT22;9914;51.008;4.300;2022-12-18T08:03:39;-4.40;99.90
19538;DHT22;9914;51.008;4.300;2022-12-18T08:06:07;-4.40;99.90
19538;DHT22;9914;51.008;4.300;2022-12-18T08:08:34;-4.30;99.90
19538;DHT22;9914;51.008;4.300;2022-12-18T08:10:59;-4.30;99.90
19538;DHT22;9914;51.008;4.300;2022-12-18T08:13:26;-4.20;99.90
19538;DHT22;9914;51.008;4.300;2022-12-18T08:16:10;-4.10;99.90
19538;DHT22;9914;51.008;4.300;2022-12-18T08:18:37;-4.10;99.90
19538;DHT22;9914;51.008;4.300;2022-12-18T08:21:14;-4.10;99.90
19538;DHT22;9914;51.008;4.300;2022-12-18T08:23:40;-3.80;99.90
19538;DHT22;9914;51.008;4.300;2022-12-18T08:26:06;-4.00;99.90
19538;DHT22;9914;51.008;4.300;2022-12-18T08:28:31;-4.00;99.90
19538;DHT22;9914;51.008;4.300;2022-12-18T08:30:57;-4.00;99.90
19538;DHT22;9914;51.008;4.300;2022-12-18T08:33:23;-3.70;99.90
19538;DHT22;9914;51.008;4.300;2022-12-18T08:35:48;-3.50;99.90
19538;DHT22;9914;51.008;4.300;2022-12-18T08:38:14;-3.60;99.90
19538;DHT22;9914;51.008;4.300;2022-12-18T08:40:40;-3.60;99.90
19538;DHT22;9914;51.008;4.300;2022-12-18T08:43:06;-3.50;99.90
19538;DHT22;9914;51.008;4.300;2022-12-18T08:45:51;-3.40;99.90
19538;DHT22;9914;51.008;4.300;2022-12-18T08:48:16;-3.30;99.90
19538;DHT22;9914;51.008;4.300;2022-12-18T08:50:42;-3.20;99.90
19538;DHT22;9914;51.008;4.300;2022-12-18T08:53:07;-3.20;99.90
19538;DHT22;9914;51.008;4.300;2022-12-18T08:55:33;-3.20;99.90
19538;DHT22;9914;51.008;4.300;2022-12-18T08:57:59;-3.20;99.90
19538;DHT22;9914;51.008;4.300;2022-12-18T09:00:24;-3.20;99.90
19538;DHT22;9914;51.008;4.300;2022-12-18T09:02:50;-3.20;99.90
19538;DHT22;9914;51.008;4.300;2022-12-18T09:05:16;-3.20;99.90
19538;DHT22;9914;51.008;4.300;2022-12-18T09:07:41;-3.10;99.90
19538;DHT22;9914;51.008;4.300;2022-12-18T09:10:07;-3.00;99.90
19538;DHT22;9914;51.008;4.300;2022-12-18T09:12:32;-3.00;99.90
19538;DHT22;9914;51.008;4.300;2022-12-18T09:14:58;-2.90;99.90
19538;DHT22;9914;51.008;4.300;2022-12-18T09:17:24;-2.70;99.90
19538;DHT22;9914;51.008;4.300;2022-12-18T09:19:49;-2.90;99.90
19538;DHT22;9914;51.008;4.300;2022-12-18T09:22:15;-2.50;99.90
19538;DHT22;9914;51.008;4.300;2022-12-18T09:24:40;-2.30;99.90
19538;DHT22;9914;51.008;4.300;2022-12-18T09:27:06;-2.30;99.90
19538;DHT22;9914;51.008;4.300;2022-12-18T09:29:32;-2.20;99.90
19538;DHT22;9914;51.008;4.300;2022-12-18T09:31:57;-2.00;99.90
19538;DHT22;9914;51.008;4.300;2022-12-18T09:34:23;-1.90;99.90
19538;DHT22;9914;51.008;4.300;2022-12-18T09:36:50;-2.00;99.90
19538;DHT22;9914;51.008;4.300;2022-12-18T09:39:16;-2.00;99.90
19538;DHT22;9914;51.008;4.300;2022-12-18T09:41:50;-2.00;99.90
19538;DHT22;9914;51.008;4.300;2022-12-18T09:49:19;-2.00;99.90
19538;DHT22;9914;51.008;4.300;2022-12-18T09:51:54;-2.00;99.90
19538;DHT22;9914;51.008;4.300;2022-12-18T09:54:25;-1.80;99.90
19538;DHT22;9914;51.008;4.300;2022-12-18T09:56:51;-1.70;99.90
19538;DHT22;9914;51.008;4.300;2022-12-18T09:59:24;-1.50;99.90
19538;DHT22;9914;51.008;4.300;2022-12-18T10:01:51;-1.20;99.90
19538;DHT22;9914;51.008;4.300;2022-12-18T10:04:16;-1.10;99.90
19538;DHT22;9914;51.008;4.300;2022-12-18T10:06:52;-1.10;99.90
19538;DHT22;9914;51.008;4.300;2022-12-18T10:09:32;-1.10;99.90
19538;DHT22;9914;51.008;4.300;2022-12-18T10:12:23;-0.90;99.90
19538;DHT22;9914;51.008;4.300;2022-12-18T10:17:50;-0.70;99.90
19538;DHT22;9914;51.008;4.300;2022-12-18T10:20:27;-0.50;99.90
19538;DHT22;9914;51.008;4.300;2022-12-18T10:23:08;-0.40;99.90
19538;DHT22;9914;51.008;4.300;2022-12-18T10:28:18;-0.40;99.90
19538;DHT22;9914;51.008;4.300;2022-12-18T10:30:44;-0.40;99.90
19538;DHT22;9914;51.008;4.300;2022-12-18T10:33:22;-0.40;99.90
19538;DHT22;9914;51.008;4.300;2022-12-18T10:35:51;-0.20;99.90
19538;DHT22;9914;51.008;4.300;2022-12-18T10:40:58;0.10;99.90
19538;DHT22;9914;51.008;4.300;2022-12-18T10:43:32;0.00;99.90
19538;DHT22;9914;51.008;4.300;2022-12-18T10:48:54;-0.10;99.90
19538;DHT22;9914;51.008;4.300;2022-12-18T10:53:59;0.20;99.90
19538;DHT22;9914;51.008;4.300;2022-12-18T10:56:27;0.20;99.90
19538;DHT22;9914;51.008;4.300;2022-12-18T10:59:03;0.10;99.90
19538;DHT22;9914;51.008;4.300;2022-12-18T11:01:50;0.20;99.90
19538;DHT22;9914;51.008;4.300;2022-12-18T11:04:22;0.30;99.90
19538;DHT22;9914;51.008;4.300;2022-12-18T11:09:27;0.60;99.90
19538;DHT22;9914;51.008;4.300;2022-12-18T11:11:55;0.80;99.90
19538;DHT22;9914;51.008;4.300;2022-12-18T11:14:24;0.80;99.90
19538;DHT22;9914;51.008;4.300;2022-12-18T11:16:51;1.00;99.90
19538;DHT22;9914;51.008;4.300;2022-12-18T11:21:58;0.90;99.90
19538;DHT22;9914;51.008;4.300;2022-12-18T11:24:31;1.00;99.90
19538;DHT22;9914;51.008;4.300;2022-12-18T11:26:59;1.00;99.90
19538;DHT22;9914;51.008;4.300;2022-12-18T11:29:33;1.10;99.90
19538;DHT22;9914;51.008;4.300;2022-12-18T11:32:25;1.20;99.90
19538;DHT22;9914;51.008;4.300;2022-12-18T11:35:11;1.20;99.90
19538;DHT22;9914;51.008;4.300;2022-12-18T11:37:43;1.30;99.90
19538;DHT22;9914;51.008;4.300;2022-12-18T11:40:19;1.20;99.90
19538;DHT22;9914;51.008;4.300;2022-12-18T11:43:01;1.20;99.90
19538;DHT22;9914;51.008;4.300;2022-12-18T11:45:33;1.50;99.90
19538;DHT22;9914;51.008;4.300;2022-12-18T11:48:27;1.30;99.90
19538;DHT22;9914;51.008;4.300;2022-12-18T11:50:55;1.30;99.90
19538;DHT22;9914;51.008;4.300;2022-12-18T11:53:22;1.30;99.90
19538;DHT22;9914;51.008;4.300;2022-12-18T12:01:55;1.80;99.90
19538;DHT22;9914;51.008;4.300;2022-12-18T12:04:56;1.70;99.90
19538;DHT22;9914;51.008;4.300;2022-12-18T12:07:31;1.80;99.90
19538;DHT22;9914;51.008;4.300;2022-12-18T12:10:36;1.80;99.90
19538;DHT22;9914;51.008;4.300;2022-12-18T12:18:47;1.90;99.90
19538;DHT22;9914;51.008;4.300;2022-12-18T12:21:39;1.90;99.90
19538;DHT22;9914;51.008;4.300;2022-12-18T12:30:24;1.80;99.90
19538;DHT22;9914;51.008;4.300;2022-12-18T12:38:24;1.90;99.90
19538;DHT22;9914;51.008;4.300;2022-12-18T12:41:06;1.90;99.90
19538;DHT22;9914;51.008;4.300;2022-12-18T12:43:56;1.90;99.90
19538;DHT22;9914;51.008;4.300;2022-12-18T12:46:23;2.00;99.90
19538;DHT22;9914;51.008;4.300;2022-12-18T12:48:59;2.00;99.90
19538;DHT22;9914;51.008;4.300;2022-12-18T12:51:34;2.00;99.90
19538;DHT22;9914;51.008;4.300;2022-12-18T12:54:04;2.00;99.90
19538;DHT22;9914;51.008;4.300;2022-12-18T12:56:45;2.00;99.90
19538;DHT22;9914;51.008;4.300;2022-12-18T12:59:22;2.10;99.90
19538;DHT22;9914;51.008;4.300;2022-12-18T13:04:35;2.20;99.90
19538;DHT22;9914;51.008;4.300;2022-12-18T13:07:10;2.30;99.90
19538;DHT22;9914;51.008;4.300;2022-12-18T13:15:42;2.10;99.90
19538;DHT22;9914;51.008;4.300;2022-12-18T13:20:49;2.00;99.90
19538;DHT22;9914;51.008;4.300;2022-12-18T13:25:50;2.20;99.90
19538;DHT22;9914;51.008;4.300;2022-12-18T13:31:02;2.50;99.90
19538;DHT22;9914;51.008;4.300;2022-12-18T13:41:41;2.40;99.90
19538;DHT22;9914;51.008;4.300;2022-12-18T13:44:13;2.50;99.90
19538;DHT22;9914;51.008;4.300;2022-12-18T13:46:47;2.50;99.90
19538;DHT22;9914;51.008;4.300;2022-12-18T13:51:41;2.50;99.90
19538;DHT22;9914;51.008;4.300;2022-12-18T13:56:46;2.50;99.90
19538;DHT22;9914;51.008;4.300;2022-12-18T13:59:22;2.60;99.90
19538;DHT22;9914;51.008;4.300;2022-12-18T14:02:21;2.60;99.90
19538;DHT22;9914;51.008;4.300;2022-12-18T14:04:46;2.60;99.90
19538;DHT22;9914;51.008;4.300;2022-12-18T14:07:13;2.80;99.90
19538;DHT22;9914;51.008;4.300;2022-12-18T14:09:45;3.00;99.90
19538;DHT22;9914;51.008;4.300;2022-12-18T14:12:18;3.10;99.90
19538;DHT22;9914;51.008;4.300;2022-12-18T14:15:06;3.10;99.90
19538;DHT22;9914;51.008;4.300;2022-12-18T14:17:40;3.00;99.90
19538;DHT22;9914;51.008;4.300;2022-12-18T14:20:16;2.90;99.90
19538;DHT22;9914;51.008;4.300;2022-12-18T14:22:47;2.80;99.90
19538;DHT22;9914;51.008;4.300;2022-12-18T14:25:20;2.90;99.90
19538;DHT22;9914;51.008;4.300;2022-12-18T14:30:43;2.80;99.90
19538;DHT22;9914;51.008;4.300;2022-12-18T14:33:11;2.90;99.90
19538;DHT22;9914;51.008;4.300;2022-12-18T14:35:39;2.70;99.90
19538;DHT22;9914;51.008;4.300;2022-12-18T14:38:33;2.80;99.90
19538;DHT22;9914;51.008;4.300;2022-12-18T14:41:04;3.00;99.90
19538;DHT22;9914;51.008;4.300;2022-12-18T14:43:35;2.90;99.90
19538;DHT22;9914;51.008;4.300;2022-12-18T14:46:02;2.80;99.90
19538;DHT22;9914;51.008;4.300;2022-12-18T14:51:03;2.40;99.90
19538;DHT22;9914;51.008;4.300;2022-12-18T14:53:36;2.20;99.90
19538;DHT22;9914;51.008;4.300;2022-12-18T14:56:14;2.10;99.90
19538;DHT22;9914;51.008;4.300;2022-12-18T14:58:45;2.00;99.90
19538;DHT22;9914;51.008;4.300;2022-12-18T15:01:19;2.50;99.90
19538;DHT22;9914;51.008;4.300;2022-12-18T15:03:44;2.80;99.90
19538;DHT22;9914;51.008;4.300;2022-12-18T15:06:25;2.80;99.90
19538;DHT22;9914;51.008;4.300;2022-12-18T15:08:52;2.30;99.90
19538;DHT22;9914;51.008;4.300;2022-12-18T15:11:32;2.10;99.90
19538;DHT22;9914;51.008;4.300;2022-12-18T15:13:58;2.20;99.90
19538;DHT22;9914;51.008;4.300;2022-12-18T15:16:25;1.70;99.90
19538;DHT22;9914;51.008;4.300;2022-12-18T15:18:51;1.50;99.90
19538;DHT22;9914;51.008;4.300;2022-12-18T15:21:19;1.40;99.90
19538;DHT22;9914;51.008;4.300;2022-12-18T15:23:49;1.40;99.90
19538;DHT22;9914;51.008;4.300;2022-12-18T15:26:17;1.50;99.90
19538;DHT22;9914;51.008;4.300;2022-12-18T15:33:42;1.70;99.90
19538;DHT22;9914;51.008;4.300;2022-12-18T15:36:14;1.70;99.90
19538;DHT22;9914;51.008;4.300;2022-12-18T15:38:40;1.70;99.90
19538;DHT22;9914;51.008;4.300;2022-12-18T15:41:06;1.70;99.90
19538;DHT22;9914;51.008;4.300;2022-12-18T15:43:37;1.80;99.90
19538;DHT22;9914;51.008;4.300;2022-12-18T15:48:35;1.80;99.90
19538;DHT22;9914;51.008;4.300;2022-12-18T15:51:07;1.80;99.90
19538;DHT22;9914;51.008;4.300;2022-12-18T15:53:36;1.70;99.90
19538;DHT22;9914;51.008;4.300;2022-12-18T15:56:07;1.90;99.90
19538;DHT22;9914;51.008;4.300;2022-12-18T15:58:52;2.10;99.90
19538;DHT22;9914;51.008;4.300;2022-12-18T16:01:20;2.00;99.90
19538;DHT22;9914;51.008;4.300;2022-12-18T16:03:47;2.00;99.90
19538;DHT22;9914;51.008;4.300;2022-12-18T16:06:13;1.90;99.90
19538;DHT22;9914;51.008;4.300;2022-12-18T16:08:38;1.80;99.90
19538;DHT22;9914;51.008;4.300;2022-12-18T16:11:05;1.80;99.90
19538;DHT22;9914;51.008;4.300;2022-12-18T16:13:34;1.80;99.90
19538;DHT22;9914;51.008;4.300;2022-12-18T16:15:59;1.80;99.90
19538;DHT22;9914;51.008;4.300;2022-12-18T16:18:25;1.80;99.90
19538;DHT22;9914;51.008;4.300;2022-12-18T16:20:50;1.90;99.90
19538;DHT22;9914;51.008;4.300;2022-12-18T16:23:16;1.90;99.90
19538;DHT22;9914;51.008;4.300;2022-12-18T16:25:42;2.20;99.90
19538;DHT22;9914;51.008;4.300;2022-12-18T16:28:07;2.20;99.90
19538;DHT22;9914;51.008;4.300;2022-12-18T16:30:33;2.20;99.90
19538;DHT22;9914;51.008;4.300;2022-12-18T16:32:59;2.40;99.90
19538;DHT22;9914;51.008;4.300;2022-12-18T16:35:26;2.60;99.90
19538;DHT22;9914;51.008;4.300;2022-12-18T16:37:52;2.50;99.90
19538;DHT22;9914;51.008;4.300;2022-12-18T16:40:18;2.20;99.90
19538;DHT22;9914;51.008;4.300;2022-12-18T16:42:45;2.50;99.90
19538;DHT22;9914;51.008;4.300;2022-12-18T16:45:16;2.50;99.90
19538;DHT22;9914;51.008;4.300;2022-12-18T16:47:43;2.60;99.90
19538;DHT22;9914;51.008;4.300;2022-12-18T16:50:09;2.50;99.90
19538;DHT22;9914;51.008;4.300;2022-12-18T16:52:35;2.50;99.90
19538;DHT22;9914;51.008;4.300;2022-12-18T16:55:01;2.40;99.90
19538;DHT22;9914;51.008;4.300;2022-12-18T16:57:27;2.60;99.90
19538;DHT22;9914;51.008;4.300;2022-12-18T16:59:52;2.70;99.90
19538;DHT22;9914;51.008;4.300;2022-12-18T17:02:23;2.80;99.90
19538;DHT22;9914;51.008;4.300;2022-12-18T17:04:52;2.70;99.90
19538;DHT22;9914;51.008;4.300;2022-12-18T17:07:18;2.90;99.90
19538;DHT22;9914;51.008;4.300;2022-12-18T17:09:44;3.00;99.90
19538;DHT22;9914;51.008;4.300;2022-12-18T17:12:09;2.70;99.90
19538;DHT22;9914;51.008;4.300;2022-12-18T17:14:35;2.70;99.90
19538;DHT22;9914;51.008;4.300;2022-12-18T17:17:01;2.80;99.90
19538;DHT22;9914;51.008;4.300;2022-12-18T17:19:28;2.80;99.90
19538;DHT22;9914;51.008;4.300;2022-12-18T17:21:54;2.90;99.90
19538;DHT22;9914;51.008;4.300;2022-12-18T17:24:20;2.70;99.90
19538;DHT22;9914;51.008;4.300;2022-12-18T17:26:47;2.90;99.90
19538;DHT22;9914;51.008;4.300;2022-12-18T17:29:14;3.00;99.90
19538;DHT22;9914;51.008;4.300;2022-12-18T17:31:40;2.80;99.90
19538;DHT22;9914;51.008;4.300;2022-12-18T17:34:06;3.00;99.90
19538;DHT22;9914;51.008;4.300;2022-12-18T17:36:32;3.00;99.90
19538;DHT22;9914;51.008;4.300;2022-12-18T17:39:00;3.20;99.90
19538;DHT22;9914;51.008;4.300;2022-12-18T17:41:27;3.10;99.90
19538;DHT22;9914;51.008;4.300;2022-12-18T17:43:55;3.00;99.90
19538;DHT22;9914;51.008;4.300;2022-12-18T17:46:22;3.10;99.90
19538;DHT22;9914;51.008;4.300;2022-12-18T17:48:48;2.90;99.90
19538;DHT22;9914;51.008;4.300;2022-12-18T17:51:15;2.70;99.90
19538;DHT22;9914;51.008;4.300;2022-12-18T17:53:41;2.90;99.90
19538;DHT22;9914;51.008;4.300;2022-12-18T17:56:09;2.90;99.90
19538;DHT22;9914;51.008;4.300;2022-12-18T17:58:36;2.90;99.90
19538;DHT22;9914;51.008;4.300;2022-12-18T18:01:03;2.70;99.90
19538;DHT22;9914;51.008;4.300;2022-12-18T18:03:28;2.70;99.90
19538;DHT22;9914;51.008;4.300;2022-12-18T18:05:56;2.60;99.90
19538;DHT22;9914;51.008;4.300;2022-12-18T18:08:22;2.60;99.90